sensor_id;sensor_type;location;lat;lon;timestamp;P1;durP1;ratioP1;P2;durP2;ratioP2
3939;SDS011;1984;48.312;9.244;2022-10-31T00:01:55;13.83;;;3.90;;
3939;SDS011;1984;48.312;9.244;2022-10-31T00:04:20;8.00;;;3.20;;
3939;SDS011;1984;48.312;9.244;2022-10-31T00:06:46;4.63;;;3.40;;
3939;SDS011;1984;48.312;9.244;2022-10-31T00:09:11;6.83;;;2.70;;
3939;SDS011;1984;48.312;9.244;2022-10-31T00:11:37;10.77;;;4.10;;
3939;SDS011;1984;48.312;9.244;2022-10-31T00:14:03;13.53;;;4.90;;
3939;SDS011;1984;48.312;9.244;2022-10-31T00:16:29;10.43;;;4.50;;
3939;SDS011;1984;48.312;9.244;2022-10-31T00:18:56;7.40;;;4.20;;
3939;SDS011;1984;48.312;9.244;2022-10-31T00:21:23;11.00;;;4.63;;
3939;SDS011;1984;48.312;9.244;2022-10-31T00:23:49;13.47;;;5.27;;
3939;SDS011;1984;48.312;9.244;2022-10-31T00:26:15;11.00;;;5.77;;
3939;SDS011;1984;48.312;9.244;2022-10-31T00:28:41;10.40;;;6.20;;
3939;SDS011;1984;48.312;9.244;2022-10-31T00:31:07;16.30;;;5.33;;
3939;SDS011;1984;48.312;9.244;2022-10-31T00:33:35;9.13;;;3.87;;
3939;SDS011;1984;48.312;9.244;2022-10-31T00:36:03;14.70;;;3.50;;
3939;SDS011;1984;48.312;9.244;2022-10-31T00:38:29;5.83;;;2.73;;
3939;SDS011;1984;48.312;9.244;2022-10-31T00:40:55;3.60;;;2.80;;
3939;SDS011;1984;48.312;9.244;2022-10-31T00:43:21;6.37;;;3.20;;
3939;SDS011;1984;48.312;9.244;2022-10-31T00:45:47;10.57;;;3.37;;
3939;SDS011;1984;48.312;9.244;2022-10-31T00:48:12;6.50;;;3.60;;
3939;SDS011;1984;48.312;9.244;2022-10-31T00:50:38;20.40;;;3.67;;
3939;SDS011;1984;48.312;9.244;2022-10-31T00:53:04;9.97;;;2.87;;
3939;SDS011;1984;48.312;9.244;2022-10-31T00:55:30;13.83;;;2.83;;
3939;SDS011;1984;48.312;9.244;2022-10-31T00:57:55;5.53;;;2.80;;
3939;SDS011;1984;48.312;9.244;2022-10-31T01:00:21;6.07;;;2.67;;
3939;SDS011;1984;48.312;9.244;2022-10-31T01:02:47;4.73;;;2.70;;
3939;SDS011;1984;48.312;9.244;2022-10-31T01:05:13;5.00;;;2.70;;
3939;SDS011;1984;48.312;9.244;2022-10-31T01:07:39;4.97;;;2.53;;
3939;SDS011;1984;48.312;9.244;2022-10-31T01:10:05;9.63;;;3.30;;
3939;SDS011;1984;48.312;9.244;2022-10-31T01:12:43;9.60;;;3.60;;
3939;SDS011;1984;48.312;9.244;2022-10-31T01:15:11;8.53;;;2.77;;
3939;SDS011;1984;48.312;9.244;2022-10-31T01:17:38;3.63;;;2.50;;
3939;SDS011;1984;48.312;9.244;2022-10-31T01:20:04;2.90;;;2.37;;
3939;SDS011;1984;48.312;9.244;2022-10-31T01:22:31;3.47;;;2.50;;
3939;SDS011;1984;48.312;9.244;2022-10-31T01:24:57;5.00;;;2.60;;
3939;SDS011;1984;48.312;9.244;2022-10-31T01:27:22;4.43;;;2.00;;
3939;SDS011;1984;48.312;9.244;2022-10-31T01:29:48;6.43;;;2.70;;
3939;SDS011;1984;48.312;9.244;2022-10-31T01:32:13;11.90;;;2.53;;
3939;SDS011;1984;48.312;9.244;2022-10-31T01:34:39;3.40;;;2.90;;
3939;SDS011;1984;48.312;9.244;2022-10-31T01:37:04;6.37;;;3.23;;
3939;SDS011;1984;48.312;9.244;2022-10-31T01:39:30;6.40;;;3.20;;
3939;SDS011;1984;48.312;9.244;2022-10-31T01:41:55;4.53;;;2.93;;
3939;SDS011;1984;48.312;9.244;2022-10-31T01:47:04;3.67;;;3.00;;
3939;SDS011;1984;48.312;9.244;2022-10-31T01:49:51;2.40;;;2.20;;
3939;SDS011;1984;48.312;9.244;2022-10-31T01:54:51;6.23;;;2.37;;
3939;SDS011;1984;48.312;9.244;2022-10-31T01:57:39;9.10;;;2.70;;
3939;SDS011;1984;48.312;9.244;2022-10-31T02:00:08;5.97;;;2.63;;
3939;SDS011;1984;48.312;9.244;2022-10-31T02:02:35;17.37;;;2.93;;
3939;SDS011;1984;48.312;9.244;2022-10-31T02:05:01;7.57;;;2.83;;
3939;SDS011;1984;48.312;9.244;2022-10-31T02:07:33;5.53;;;2.80;;
3939;SDS011;1984;48.312;9.244;2022-10-31T02:10:03;5.50;;;2.90;;
3939;SDS011;1984;48.312;9.244;2022-10-31T02:12:30;4.80;;;3.03;;
3939;SDS011;1984;48.312;9.244;2022-10-31T02:14:57;7.10;;;2.80;;
3939;SDS011;1984;48.312;9.244;2022-10-31T02:17:24;4.37;;;3.43;;
3939;SDS011;1984;48.312;9.244;2022-10-31T02:19:59;9.53;;;3.47;;
3939;SDS011;1984;48.312;9.244;2022-10-31T02:28:15;5.73;;;3.00;;
3939;SDS011;1984;48.312;9.244;2022-10-31T02:33:55;5.07;;;2.77;;
3939;SDS011;1984;48.312;9.244;2022-10-31T02:36:27;12.33;;;2.90;;
3939;SDS011;1984;48.312;9.244;2022-10-31T02:47:16;8.17;;;3.17;;
3939;SDS011;1984;48.312;9.244;2022-10-31T02:52:24;8.57;;;3.00;;
3939;SDS011;1984;48.312;9.244;2022-10-31T02:54:55;4.97;;;2.40;;
3939;SDS011;1984;48.312;9.244;2022-10-31T02:57:29;3.40;;;2.80;;
3939;SDS011;1984;48.312;9.244;2022-10-31T03:00:00;6.13;;;2.90;;
3939;SDS011;1984;48.312;9.244;2022-10-31T03:05:21;4.00;;;1.90;;
3939;SDS011;1984;48.312;9.244;2022-10-31T03:10:35;5.00;;;2.70;;
3939;SDS011;1984;48.312;9.244;2022-10-31T03:13:15;8.93;;;3.17;;
3939;SDS011;1984;48.312;9.244;2022-10-31T03:15:48;5.00;;;2.30;;
3939;SDS011;1984;48.312;9.244;2022-10-31T03:18:26;4.20;;;2.93;;
3939;SDS011;1984;48.312;9.244;2022-10-31T03:21:19;4.93;;;3.20;;
3939;SDS011;1984;48.312;9.244;2022-10-31T03:23:50;3.60;;;2.80;;
3939;SDS011;1984;48.312;9.244;2022-10-31T03:26:19;8.73;;;2.90;;
3939;SDS011;1984;48.312;9.244;2022-10-31T03:28:52;5.70;;;3.47;;
3939;SDS011;1984;48.312;9.244;2022-10-31T03:31:22;7.40;;;3.07;;
3939;SDS011;1984;48.312;9.244;2022-10-31T03:33:51;13.73;;;3.20;;
3939;SDS011;1984;48.312;9.244;2022-10-31T03:36:18;10.10;;;3.27;;
3939;SDS011;1984;48.312;9.244;2022-10-31T03:38:45;4.00;;;2.97;;
3939;SDS011;1984;48.312;9.244;2022-10-31T03:41:13;7.87;;;3.20;;
3939;SDS011;1984;48.312;9.244;2022-10-31T03:43:42;5.73;;;2.77;;
3939;SDS011;1984;48.312;9.244;2022-10-31T03:46:13;6.30;;;3.23;;
3939;SDS011;1984;48.312;9.244;2022-10-31T03:48:38;3.90;;;2.00;;
3939;SDS011;1984;48.312;9.244;2022-10-31T03:51:13;5.30;;;2.10;;
3939;SDS011;1984;48.312;9.244;2022-10-31T03:53:47;11.43;;;3.20;;
3939;SDS011;1984;48.312;9.244;2022-10-31T03:56:30;3.80;;;2.60;;
3939;SDS011;1984;48.312;9.244;2022-10-31T03:59:05;8.73;;;2.83;;
3939;SDS011;1984;48.312;9.244;2022-10-31T04:01:41;5.10;;;3.30;;
3939;SDS011;1984;48.312;9.244;2022-10-31T04:04:11;6.30;;;2.70;;
3939;SDS011;1984;48.312;9.244;2022-10-31T04:06:37;8.23;;;3.33;;
3939;SDS011;1984;48.312;9.244;2022-10-31T04:09:06;5.13;;;3.00;;
3939;SDS011;1984;48.312;9.244;2022-10-31T04:11:35;10.40;;;3.07;;
3939;SDS011;1984;48.312;9.244;2022-10-31T04:14:05;7.87;;;2.70;;
3939;SDS011;1984;48.312;9.244;2022-10-31T04:16:33;3.23;;;2.73;;
3939;SDS011;1984;48.312;9.244;2022-10-31T04:18:58;4.00;;;2.60;;
3939;SDS011;1984;48.312;9.244;2022-10-31T04:21:27;7.23;;;2.20;;
3939;SDS011;1984;48.312;9.244;2022-10-31T04:23:54;8.10;;;2.80;;
3939;SDS011;1984;48.312;9.244;2022-10-31T04:26:20;5.27;;;2.70;;
3939;SDS011;1984;48.312;9.244;2022-10-31T04:28:46;1.97;;;1.83;;
3939;SDS011;1984;48.312;9.244;2022-10-31T04:31:11;4.10;;;2.10;;
3939;SDS011;1984;48.312;9.244;2022-10-31T04:33:37;3.17;;;2.57;;
3939;SDS011;1984;48.312;9.244;2022-10-31T04:36:03;7.10;;;3.07;;
3939;SDS011;1984;48.312;9.244;2022-10-31T04:38:29;5.23;;;2.87;;
3939;SDS011;1984;48.312;9.244;2022-10-31T04:40:55;8.07;;;3.50;;
3939;SDS011;1984;48.312;9.244;2022-10-31T04:43:20;4.90;;;2.87;;
3939;SDS011;1984;48.312;9.244;2022-10-31T04:45:46;2.40;;;2.20;;
3939;SDS011;1984;48.312;9.244;2022-10-31T04:48:12;3.13;;;2.13;;
3939;SDS011;1984;48.312;9.244;2022-10-31T04:50:37;4.97;;;3.17;;
3939;SDS011;1984;48.312;9.244;2022-10-31T04:53:03;3.43;;;2.30;;
3939;SDS011;1984;48.312;9.244;2022-10-31T04:55:28;9.40;;;2.07;;
3939;SDS011;1984;48.312;9.244;2022-10-31T04:57:54;3.50;;;1.80;;
3939;SDS011;1984;48.312;9.244;2022-10-31T05:00:20;2.87;;;2.07;;
3939;SDS011;1984;48.312;9.244;2022-10-31T05:02:50;3.90;;;2.40;;
3939;SDS011;1984;48.312;9.244;2022-10-31T05:05:18;8.13;;;3.20;;
3939;SDS011;1984;48.312;9.244;2022-10-31T05:07:46;4.27;;;2.03;;
3939;SDS011;1984;48.312;9.244;2022-10-31T05:10:14;7.13;;;2.57;;
3939;SDS011;1984;48.312;9.244;2022-10-31T05:12:49;3.83;;;2.60;;
3939;SDS011;1984;48.312;9.244;2022-10-31T05:15:17;6.50;;;2.90;;
3939;SDS011;1984;48.312;9.244;2022-10-31T05:17:44;10.70;;;2.80;;
3939;SDS011;1984;48.312;9.244;2022-10-31T05:20:11;8.27;;;4.20;;
3939;SDS011;1984;48.312;9.244;2022-10-31T05:22:41;5.60;;;3.67;;
3939;SDS011;1984;48.312;9.244;2022-10-31T05:25:08;3.30;;;2.60;;
3939;SDS011;1984;48.312;9.244;2022-10-31T05:27:34;7.90;;;2.67;;
3939;SDS011;1984;48.312;9.244;2022-10-31T05:29:59;2.00;;;1.80;;
3939;SDS011;1984;48.312;9.244;2022-10-31T05:32:25;9.10;;;2.40;;
3939;SDS011;1984;48.312;9.244;2022-10-31T05:34:50;7.73;;;2.00;;
3939;SDS011;1984;48.312;9.244;2022-10-31T05:37:16;6.27;;;2.20;;
3939;SDS011;1984;48.312;9.244;2022-10-31T05:39:41;2.83;;;2.30;;
3939;SDS011;1984;48.312;9.244;2022-10-31T05:42:07;4.83;;;2.67;;
3939;SDS011;1984;48.312;9.244;2022-10-31T05:44:32;4.10;;;2.67;;
3939;SDS011;1984;48.312;9.244;2022-10-31T05:46:58;11.63;;;2.57;;
3939;SDS011;1984;48.312;9.244;2022-10-31T05:49:23;6.13;;;2.40;;
3939;SDS011;1984;48.312;9.244;2022-10-31T05:51:49;3.70;;;2.00;;
3939;SDS011;1984;48.312;9.244;2022-10-31T05:54:14;5.70;;;1.87;;
3939;SDS011;1984;48.312;9.244;2022-10-31T05:56:40;2.23;;;2.00;;
3939;SDS011;1984;48.312;9.244;2022-10-31T05:59:05;4.43;;;2.33;;
3939;SDS011;1984;48.312;9.244;2022-10-31T06:01:31;3.30;;;1.80;;
3939;SDS011;1984;48.312;9.244;2022-10-31T06:03:56;5.07;;;2.27;;
3939;SDS011;1984;48.312;9.244;2022-10-31T06:06:22;2.23;;;2.03;;
3939;SDS011;1984;48.312;9.244;2022-10-31T06:08:47;3.13;;;2.20;;
3939;SDS011;1984;48.312;9.244;2022-10-31T06:11:13;4.60;;;2.00;;
3939;SDS011;1984;48.312;9.244;2022-10-31T06:13:38;3.37;;;2.03;;
3939;SDS011;1984;48.312;9.244;2022-10-31T06:16:04;3.50;;;2.10;;
3939;SDS011;1984;48.312;9.244;2022-10-31T06:18:29;4.70;;;1.77;;
3939;SDS011;1984;48.312;9.244;2022-10-31T06:20:55;3.60;;;1.93;;
3939;SDS011;1984;48.312;9.244;2022-10-31T06:23:20;4.30;;;2.53;;
3939;SDS011;1984;48.312;9.244;2022-10-31T06:25:49;3.67;;;2.50;;
3939;SDS011;1984;48.312;9.244;2022-10-31T06:28:15;4.57;;;2.23;;
3939;SDS011;1984;48.312;9.244;2022-10-31T06:30:41;3.00;;;1.63;;
3939;SDS011;1984;48.312;9.244;2022-10-31T06:33:06;2.60;;;2.10;;
3939;SDS011;1984;48.312;9.244;2022-10-31T06:35:32;6.73;;;2.40;;
3939;SDS011;1984;48.312;9.244;2022-10-31T06:37:58;3.30;;;2.60;;
3939;SDS011;1984;48.312;9.244;2022-10-31T06:40:23;7.23;;;3.13;;
3939;SDS011;1984;48.312;9.244;2022-10-31T06:42:56;5.40;;;2.63;;
3939;SDS011;1984;48.312;9.244;2022-10-31T06:45:25;3.87;;;2.30;;
3939;SDS011;1984;48.312;9.244;2022-10-31T06:47:52;5.30;;;2.53;;
3939;SDS011;1984;48.312;9.244;2022-10-31T06:50:18;8.50;;;2.90;;
3939;SDS011;1984;48.312;9.244;2022-10-31T06:52:49;6.53;;;4.17;;
3939;SDS011;1984;48.312;9.244;2022-10-31T06:55:15;7.37;;;3.57;;
3939;SDS011;1984;48.312;9.244;2022-10-31T06:57:41;2.90;;;2.50;;
3939;SDS011;1984;48.312;9.244;2022-10-31T07:00:07;4.30;;;2.20;;
3939;SDS011;1984;48.312;9.244;2022-10-31T07:02:33;7.40;;;2.53;;
3939;SDS011;1984;48.312;9.244;2022-10-31T07:04:58;1.93;;;1.73;;
3939;SDS011;1984;48.312;9.244;2022-10-31T07:07:24;3.30;;;1.93;;
3939;SDS011;1984;48.312;9.244;2022-10-31T07:09:49;4.57;;;2.23;;
3939;SDS011;1984;48.312;9.244;2022-10-31T07:12:15;5.70;;;2.47;;
3939;SDS011;1984;48.312;9.244;2022-10-31T07:14:41;3.87;;;2.40;;
3939;SDS011;1984;48.312;9.244;2022-10-31T07:17:07;4.03;;;2.20;;
3939;SDS011;1984;48.312;9.244;2022-10-31T07:19:32;3.53;;;2.57;;
3939;SDS011;1984;48.312;9.244;2022-10-31T07:21:58;7.63;;;1.87;;
3939;SDS011;1984;48.312;9.244;2022-10-31T07:24:23;8.03;;;2.73;;
3939;SDS011;1984;48.312;9.244;2022-10-31T07:26:49;3.90;;;2.20;;
3939;SDS011;1984;48.312;9.244;2022-10-31T07:29:14;5.07;;;2.43;;
3939;SDS011;1984;48.312;9.244;2022-10-31T07:31:40;8.00;;;2.73;;
3939;SDS011;1984;48.312;9.244;2022-10-31T07:34:05;4.30;;;2.33;;
3939;SDS011;1984;48.312;9.244;2022-10-31T07:36:31;4.97;;;2.10;;
3939;SDS011;1984;48.312;9.244;2022-10-31T07:38:56;15.03;;;4.50;;
3939;SDS011;1984;48.312;9.244;2022-10-31T07:41:23;15.43;;;7.73;;
3939;SDS011;1984;48.312;9.244;2022-10-31T07:43:49;20.90;;;8.20;;
3939;SDS011;1984;48.312;9.244;2022-10-31T07:46:14;18.80;;;8.80;;
3939;SDS011;1984;48.312;9.244;2022-10-31T07:48:40;29.30;;;10.90;;
3939;SDS011;1984;48.312;9.244;2022-10-31T07:51:06;15.00;;;10.20;;
3939;SDS011;1984;48.312;9.244;2022-10-31T07:53:31;17.33;;;10.20;;
3939;SDS011;1984;48.312;9.244;2022-10-31T07:55:57;12.50;;;8.93;;
3939;SDS011;1984;48.312;9.244;2022-10-31T07:58:22;15.50;;;9.00;;
3939;SDS011;1984;48.312;9.244;2022-10-31T08:00:49;17.60;;;8.60;;
3939;SDS011;1984;48.312;9.244;2022-10-31T08:03:18;21.47;;;8.23;;
3939;SDS011;1984;48.312;9.244;2022-10-31T08:05:44;15.87;;;8.60;;
3939;SDS011;1984;48.312;9.244;2022-10-31T08:08:11;17.57;;;9.87;;
3939;SDS011;1984;48.312;9.244;2022-10-31T08:10:37;18.50;;;11.50;;
3939;SDS011;1984;48.312;9.244;2022-10-31T08:13:04;20.10;;;11.03;;
3939;SDS011;1984;48.312;9.244;2022-10-31T08:15:38;24.03;;;10.60;;
3939;SDS011;1984;48.312;9.244;2022-10-31T08:18:06;17.90;;;10.23;;
3939;SDS011;1984;48.312;9.244;2022-10-31T08:20:38;22.20;;;10.43;;
3939;SDS011;1984;48.312;9.244;2022-10-31T08:23:05;19.90;;;10.10;;
3939;SDS011;1984;48.312;9.244;2022-10-31T08:25:31;35.73;;;10.20;;
3939;SDS011;1984;48.312;9.244;2022-10-31T08:27:58;15.20;;;10.07;;
3939;SDS011;1984;48.312;9.244;2022-10-31T08:30:25;33.23;;;11.27;;
3939;SDS011;1984;48.312;9.244;2022-10-31T08:33:03;24.60;;;7.70;;
3939;SDS011;1984;48.312;9.244;2022-10-31T08:35:30;21.97;;;8.70;;
3939;SDS011;1984;48.312;9.244;2022-10-31T08:37:56;21.93;;;8.40;;
3939;SDS011;1984;48.312;9.244;2022-10-31T08:40:23;22.13;;;9.30;;
3939;SDS011;1984;48.312;9.244;2022-10-31T08:42:55;17.30;;;8.53;;
3939;SDS011;1984;48.312;9.244;2022-10-31T08:45:40;13.40;;;7.70;;
3939;SDS011;1984;48.312;9.244;2022-10-31T08:48:11;18.83;;;7.60;;
3939;SDS011;1984;48.312;9.244;2022-10-31T08:50:39;12.60;;;7.50;;
3939;SDS011;1984;48.312;9.244;2022-10-31T08:53:06;13.00;;;7.00;;
3939;SDS011;1984;48.312;9.244;2022-10-31T08:55:34;14.17;;;7.40;;
3939;SDS011;1984;48.312;9.244;2022-10-31T08:58:00;16.30;;;7.07;;
3939;SDS011;1984;48.312;9.244;2022-10-31T09:00:27;10.07;;;7.07;;
3939;SDS011;1984;48.312;9.244;2022-10-31T09:02:59;13.40;;;6.03;;
3939;SDS011;1984;48.312;9.244;2022-10-31T09:05:26;13.20;;;4.57;;
3939;SDS011;1984;48.312;9.244;2022-10-31T09:07:59;17.10;;;5.00;;
3939;SDS011;1984;48.312;9.244;2022-10-31T09:10:26;12.33;;;5.27;;
3939;SDS011;1984;48.312;9.244;2022-10-31T09:12:59;14.93;;;5.30;;
3939;SDS011;1984;48.312;9.244;2022-10-31T09:15:27;13.57;;;6.13;;
3939;SDS011;1984;48.312;9.244;2022-10-31T09:17:53;12.00;;;5.83;;
3939;SDS011;1984;48.312;9.244;2022-10-31T09:20:19;9.87;;;4.97;;
3939;SDS011;1984;48.312;9.244;2022-10-31T09:22:45;13.80;;;5.60;;
3939;SDS011;1984;48.312;9.244;2022-10-31T09:25:11;11.60;;;5.10;;
3939;SDS011;1984;48.312;9.244;2022-10-31T09:27:37;9.30;;;5.53;;
3939;SDS011;1984;48.312;9.244;2022-10-31T09:30:03;11.83;;;5.00;;
3939;SDS011;1984;48.312;9.244;2022-10-31T09:32:29;7.07;;;4.47;;
3939;SDS011;1984;48.312;9.244;2022-10-31T09:34:54;10.37;;;4.80;;
3939;SDS011;1984;48.312;9.244;2022-10-31T09:37:20;7.10;;;5.13;;
3939;SDS011;1984;48.312;9.244;2022-10-31T09:39:46;15.17;;;5.87;;
3939;SDS011;1984;48.312;9.244;2022-10-31T09:42:24;13.70;;;6.60;;
3939;SDS011;1984;48.312;9.244;2022-10-31T09:47:59;15.20;;;6.80;;
3939;SDS011;1984;48.312;9.244;2022-10-31T09:50:52;14.83;;;6.37;;
3939;SDS011;1984;48.312;9.244;2022-10-31T09:53:41;28.87;;;6.47;;
3939;SDS011;1984;48.312;9.244;2022-10-31T09:56:18;11.67;;;5.30;;
3939;SDS011;1984;48.312;9.244;2022-10-31T09:58:47;17.07;;;5.87;;
3939;SDS011;1984;48.312;9.244;2022-10-31T10:01:28;13.00;;;5.80;;
3939;SDS011;1984;48.312;9.244;2022-10-31T10:06:47;10.90;;;4.93;;
3939;SDS011;1984;48.312;9.244;2022-10-31T10:09:16;16.67;;;5.70;;
3939;SDS011;1984;48.312;9.244;2022-10-31T10:17:13;20.73;;;9.73;;
3939;SDS011;1984;48.312;9.244;2022-10-31T10:25:33;49.67;;;25.67;;
3939;SDS011;1984;48.312;9.244;2022-10-31T10:28:08;48.97;;;26.63;;
3939;SDS011;1984;48.312;9.244;2022-10-31T10:30:40;50.20;;;23.80;;
3939;SDS011;1984;48.312;9.244;2022-10-31T10:33:12;34.40;;;18.40;;
3939;SDS011;1984;48.312;9.244;2022-10-31T10:35:49;31.07;;;14.50;;
3939;SDS011;1984;48.312;9.244;2022-10-31T10:38:20;20.90;;;7.23;;
3939;SDS011;1984;48.312;9.244;2022-10-31T10:40:48;17.97;;;8.17;;
3939;SDS011;1984;48.312;9.244;2022-10-31T10:43:19;14.60;;;7.17;;
3939;SDS011;1984;48.312;9.244;2022-10-31T10:49:16;17.77;;;6.77;;
3939;SDS011;1984;48.312;9.244;2022-10-31T10:57:07;10.60;;;4.77;;
3939;SDS011;1984;48.312;9.244;2022-10-31T10:59:47;9.03;;;4.80;;
3939;SDS011;1984;48.312;9.244;2022-10-31T11:02:21;15.90;;;6.73;;
3939;SDS011;1984;48.312;9.244;2022-10-31T11:04:53;13.20;;;4.90;;
3939;SDS011;1984;48.312;9.244;2022-10-31T11:07:20;15.70;;;5.30;;
3939;SDS011;1984;48.312;9.244;2022-10-31T11:09:46;11.17;;;4.60;;
3939;SDS011;1984;48.312;9.244;2022-10-31T11:12:56;14.17;;;5.00;;
3939;SDS011;1984;48.312;9.244;2022-10-31T11:15:08;9.87;;;4.37;;
3939;SDS011;1984;48.312;9.244;2022-10-31T11:17:46;9.27;;;4.50;;
3939;SDS011;1984;48.312;9.244;2022-10-31T11:22:41;17.53;;;4.30;;
3939;SDS011;1984;48.312;9.244;2022-10-31T11:25:19;19.93;;;3.90;;
3939;SDS011;1984;48.312;9.244;2022-10-31T11:27:59;19.00;;;4.10;;
3939;SDS011;1984;48.312;9.244;2022-10-31T11:30:25;10.73;;;3.97;;
3939;SDS011;1984;48.312;9.244;2022-10-31T11:32:51;13.33;;;3.40;;
3939;SDS011;1984;48.312;9.244;2022-10-31T11:35:17;7.87;;;3.10;;
3939;SDS011;1984;48.312;9.244;2022-10-31T11:37:46;13.93;;;4.60;;
3939;SDS011;1984;48.312;9.244;2022-10-31T11:40:17;13.23;;;3.23;;
3939;SDS011;1984;48.312;9.244;2022-10-31T11:42:45;19.43;;;4.57;;
3939;SDS011;1984;48.312;9.244;2022-10-31T11:45:16;13.90;;;4.50;;
3939;SDS011;1984;48.312;9.244;2022-10-31T11:47:47;15.07;;;3.90;;
3939;SDS011;1984;48.312;9.244;2022-10-31T11:50:21;5.97;;;2.70;;
3939;SDS011;1984;48.312;9.244;2022-10-31T11:52:47;11.10;;;3.23;;
3939;SDS011;1984;48.312;9.244;2022-10-31T11:55:17;22.20;;;3.27;;
3939;SDS011;1984;48.312;9.244;2022-10-31T11:57:54;11.10;;;3.20;;
3939;SDS011;1984;48.312;9.244;2022-10-31T12:03:11;17.80;;;3.70;;
3939;SDS011;1984;48.312;9.244;2022-10-31T12:05:44;12.60;;;3.87;;
3939;SDS011;1984;48.312;9.244;2022-10-31T12:08:12;9.60;;;3.10;;
3939;SDS011;1984;48.312;9.244;2022-10-31T12:16:25;14.23;;;2.87;;
3939;SDS011;1984;48.312;9.244;2022-10-31T12:21:26;8.97;;;2.50;;
3939;SDS011;1984;48.312;9.244;2022-10-31T12:27:05;15.50;;;2.20;;
3939;SDS011;1984;48.312;9.244;2022-10-31T12:43:18;8.07;;;2.83;;
3939;SDS011;1984;48.312;9.244;2022-10-31T12:45:52;15.70;;;3.17;;
3939;SDS011;1984;48.312;9.244;2022-10-31T12:59:28;9.67;;;2.90;;
3939;SDS011;1984;48.312;9.244;2022-10-31T13:01:56;13.77;;;3.73;;
3939;SDS011;1984;48.312;9.244;2022-10-31T13:04:50;14.17;;;3.30;;
3939;SDS011;1984;48.312;9.244;2022-10-31T13:07:30;8.53;;;3.00;;
3939;SDS011;1984;48.312;9.244;2022-10-31T13:10:07;10.37;;;3.10;;
3939;SDS011;1984;48.312;9.244;2022-10-31T13:12:41;10.83;;;2.70;;
3939;SDS011;1984;48.312;9.244;2022-10-31T13:15:16;5.53;;;2.60;;
3939;SDS011;1984;48.312;9.244;2022-10-31T13:17:47;9.00;;;3.27;;
3939;SDS011;1984;48.312;9.244;2022-10-31T13:20:29;6.63;;;2.60;;
3939;SDS011;1984;48.312;9.244;2022-10-31T13:25:55;4.70;;;2.30;;
3939;SDS011;1984;48.312;9.244;2022-10-31T13:28:34;14.37;;;2.90;;
3939;SDS011;1984;48.312;9.244;2022-10-31T13:31:12;12.33;;;2.83;;
3939;SDS011;1984;48.312;9.244;2022-10-31T13:36:24;9.93;;;2.03;;
3939;SDS011;1984;48.312;9.244;2022-10-31T13:42:08;12.33;;;2.87;;
3939;SDS011;1984;48.312;9.244;2022-10-31T13:44:54;10.07;;;3.07;;
3939;SDS011;1984;48.312;9.244;2022-10-31T13:47:21;28.10;;;3.83;;
3939;SDS011;1984;48.312;9.244;2022-10-31T13:49:49;9.63;;;1.93;;
3939;SDS011;1984;48.312;9.244;2022-10-31T13:52:16;11.20;;;2.13;;
3939;SDS011;1984;48.312;9.244;2022-10-31T13:54:51;8.87;;;2.57;;
3939;SDS011;1984;48.312;9.244;2022-10-31T13:57:41;9.20;;;2.50;;
3939;SDS011;1984;48.312;9.244;2022-10-31T14:02:49;13.43;;;2.30;;
3939;SDS011;1984;48.312;9.244;2022-10-31T14:05:30;8.43;;;2.23;;
3939;SDS011;1984;48.312;9.244;2022-10-31T14:07:59;5.67;;;2.10;;
3939;SDS011;1984;48.312;9.244;2022-10-31T14:10:35;14.43;;;2.50;;
3939;SDS011;1984;48.312;9.244;2022-10-31T14:13:13;10.03;;;1.83;;
3939;SDS011;1984;48.312;9.244;2022-10-31T14:15:41;6.93;;;1.90;;
3939;SDS011;1984;48.312;9.244;2022-10-31T14:18:21;4.50;;;1.67;;
3939;SDS011;1984;48.312;9.244;2022-10-31T14:20:55;5.43;;;1.60;;
3939;SDS011;1984;48.312;9.244;2022-10-31T14:28:59;7.80;;;1.90;;
3939;SDS011;1984;48.312;9.244;2022-10-31T14:31:39;3.77;;;1.70;;
3939;SDS011;1984;48.312;9.244;2022-10-31T14:34:21;4.60;;;2.13;;
3939;SDS011;1984;48.312;9.244;2022-10-31T14:39:56;5.47;;;2.23;;
3939;SDS011;1984;48.312;9.244;2022-10-31T14:45:39;8.33;;;2.00;;
3939;SDS011;1984;48.312;9.244;2022-10-31T14:48:13;11.67;;;2.40;;
3939;SDS011;1984;48.312;9.244;2022-10-31T14:51:00;6.90;;;2.13;;
3939;SDS011;1984;48.312;9.244;2022-10-31T14:53:35;4.27;;;2.30;;
3939;SDS011;1984;48.312;9.244;2022-10-31T14:56:19;7.63;;;2.10;;
3939;SDS011;1984;48.312;9.244;2022-10-31T14:58:48;9.90;;;2.80;;
3939;SDS011;1984;48.312;9.244;2022-10-31T15:01:19;10.30;;;2.33;;
3939;SDS011;1984;48.312;9.244;2022-10-31T15:03:58;10.73;;;2.50;;
3939;SDS011;1984;48.312;9.244;2022-10-31T15:06:30;7.10;;;2.77;;
3939;SDS011;1984;48.312;9.244;2022-10-31T15:09:03;11.23;;;2.57;;
3939;SDS011;1984;48.312;9.244;2022-10-31T15:11:28;8.03;;;2.70;;
3939;SDS011;1984;48.312;9.244;2022-10-31T15:14:05;12.23;;;2.47;;
3939;SDS011;1984;48.312;9.244;2022-10-31T15:16:47;2.63;;;1.93;;
3939;SDS011;1984;48.312;9.244;2022-10-31T15:19:15;5.60;;;2.50;;
3939;SDS011;1984;48.312;9.244;2022-10-31T15:21:45;8.43;;;2.80;;
3939;SDS011;1984;48.312;9.244;2022-10-31T15:24:15;9.67;;;3.00;;
3939;SDS011;1984;48.312;9.244;2022-10-31T15:26:44;8.60;;;3.27;;
3939;SDS011;1984;48.312;9.244;2022-10-31T15:29:12;6.17;;;2.70;;
3939;SDS011;1984;48.312;9.244;2022-10-31T15:31:48;12.60;;;3.70;;
3939;SDS011;1984;48.312;9.244;2022-10-31T15:34:17;8.00;;;3.30;;
3939;SDS011;1984;48.312;9.244;2022-10-31T15:36:47;6.10;;;2.77;;
3939;SDS011;1984;48.312;9.244;2022-10-31T15:39:15;13.67;;;3.20;;
3939;SDS011;1984;48.312;9.244;2022-10-31T15:44:27;9.07;;;3.23;;
3939;SDS011;1984;48.312;9.244;2022-10-31T15:47:05;29.50;;;4.10;;
3939;SDS011;1984;48.312;9.244;2022-10-31T15:49:39;13.47;;;4.60;;
3939;SDS011;1984;48.312;9.244;2022-10-31T15:52:10;11.43;;;4.63;;
3939;SDS011;1984;48.312;9.244;2022-10-31T15:54:44;32.33;;;5.00;;
3939;SDS011;1984;48.312;9.244;2022-10-31T15:57:12;11.50;;;4.77;;
3939;SDS011;1984;48.312;9.244;2022-10-31T15:59:38;10.70;;;4.33;;
3939;SDS011;1984;48.312;9.244;2022-10-31T16:02:09;15.60;;;4.50;;
3939;SDS011;1984;48.312;9.244;2022-10-31T16:04:36;7.07;;;3.90;;
3939;SDS011;1984;48.312;9.244;2022-10-31T16:07:10;10.10;;;3.70;;
3939;SDS011;1984;48.312;9.244;2022-10-31T16:09:48;7.47;;;3.70;;
3939;SDS011;1984;48.312;9.244;2022-10-31T16:12:14;17.90;;;4.73;;
3939;SDS011;1984;48.312;9.244;2022-10-31T16:14:41;11.17;;;5.40;;
3939;SDS011;1984;48.312;9.244;2022-10-31T16:17:10;5.60;;;2.90;;
3939;SDS011;1984;48.312;9.244;2022-10-31T16:22:35;7.93;;;3.00;;
3939;SDS011;1984;48.312;9.244;2022-10-31T16:25:04;9.30;;;4.20;;
3939;SDS011;1984;48.312;9.244;2022-10-31T16:27:39;16.70;;;6.10;;
3939;SDS011;1984;48.312;9.244;2022-10-31T16:30:48;10.90;;;5.30;;
3939;SDS011;1984;48.312;9.244;2022-10-31T16:32:55;15.00;;;6.87;;
3939;SDS011;1984;48.312;9.244;2022-10-31T16:35:24;14.10;;;3.90;;
3939;SDS011;1984;48.312;9.244;2022-10-31T16:37:52;31.83;;;5.80;;
3939;SDS011;1984;48.312;9.244;2022-10-31T16:40:18;11.97;;;4.07;;
3939;SDS011;1984;48.312;9.244;2022-10-31T16:42:44;6.70;;;3.40;;
3939;SDS011;1984;48.312;9.244;2022-10-31T16:45:16;12.07;;;3.70;;
3939;SDS011;1984;48.312;9.244;2022-10-31T16:47:49;10.77;;;5.10;;
3939;SDS011;1984;48.312;9.244;2022-10-31T16:50:16;15.40;;;5.20;;
3939;SDS011;1984;48.312;9.244;2022-10-31T16:52:44;28.17;;;10.80;;
3939;SDS011;1984;48.312;9.244;2022-10-31T16:55:12;22.03;;;8.13;;
3939;SDS011;1984;48.312;9.244;2022-10-31T16:57:39;8.40;;;3.83;;
3939;SDS011;1984;48.312;9.244;2022-10-31T17:00:09;7.10;;;3.80;;
3939;SDS011;1984;48.312;9.244;2022-10-31T17:02:39;12.27;;;2.80;;
3939;SDS011;1984;48.312;9.244;2022-10-31T17:05:04;9.70;;;3.43;;
3939;SDS011;1984;48.312;9.244;2022-10-31T17:07:30;5.63;;;3.40;;
3939;SDS011;1984;48.312;9.244;2022-10-31T17:09:56;14.00;;;3.00;;
3939;SDS011;1984;48.312;9.244;2022-10-31T17:12:21;12.23;;;3.17;;
3939;SDS011;1984;48.312;9.244;2022-10-31T17:14:50;8.97;;;3.43;;
3939;SDS011;1984;48.312;9.244;2022-10-31T17:17:17;3.97;;;2.80;;
3939;SDS011;1984;48.312;9.244;2022-10-31T17:19:42;5.33;;;2.77;;
3939;SDS011;1984;48.312;9.244;2022-10-31T17:22:12;13.13;;;4.70;;
3939;SDS011;1984;48.312;9.244;2022-10-31T17:24:39;18.60;;;7.20;;
3939;SDS011;1984;48.312;9.244;2022-10-31T17:27:05;16.80;;;5.13;;
3939;SDS011;1984;48.312;9.244;2022-10-31T17:29:30;5.20;;;3.03;;